sensor_id;sensor_type;location;lat;lon;timestamp;temperature;humidity
5775;DHT22;2913;51.120;6.772;2023-11-19T00:00:38;11.80;99.90
5775;DHT22;2913;51.120;6.772;2023-11-19T00:03:04;11.70;99.90
5775;DHT22;2913;51.120;6.772;2023-11-19T00:05:32;11.80;99.90
5775;DHT22;2913;51.120;6.772;2023-11-19T00:07:57;11.80;99.90
5775;DHT22;2913;51.120;6.772;2023-11-19T00:10:23;11.90;99.90
5775;DHT22;2913;51.120;6.772;2023-11-19T00:12:51;11.90;99.90
5775;DHT22;2913;51.120;6.772;2023-11-19T00:15:17;12.00;99.90
5775;DHT22;2913;51.120;6.772;2023-11-19T00:17:47;12.00;99.90
5775;DHT22;2913;51.120;6.772;2023-11-19T00:20:20;12.00;99.90
5775;DHT22;2913;51.120;6.772;2023-11-19T00:22:47;12.00;99.90
5775;DHT22;2913;51.120;6.772;2023-11-19T00:25:22;12.00;99.90
5775;DHT22;2913;51.120;6.772;2023-11-19T00:27:48;12.10;99.90
5775;DHT22;2913;51.120;6.772;2023-11-19T00:30:14;12.10;99.90
5775;DHT22;2913;51.120;6.772;2023-11-19T00:32:41;12.10;99.90
5775;DHT22;2913;51.120;6.772;2023-11-19T00:35:11;12.10;99.90
5775;DHT22;2913;51.120;6.772;2023-11-19T00:37:39;12.20;99.90
5775;DHT22;2913;51.120;6.772;2023-11-19T00:40:05;12.20;99.90
5775;DHT22;2913;51.120;6.772;2023-11-19T00:42:34;12.30;99.90
5775;DHT22;2913;51.120;6.772;2023-11-19T00:45:01;12.30;99.90
5775;DHT22;2913;51.120;6.772;2023-11-19T00:47:27;12.30;99.90
5775;DHT22;2913;51.120;6.772;2023-11-19T00:49:56;12.30;99.90
5775;DHT22;2913;51.120;6.772;2023-11-19T00:52:24;12.30;99.90
5775;DHT22;2913;51.120;6.772;2023-11-19T00:54:52;12.40;99.90
5775;DHT22;2913;51.120;6.772;2023-11-19T00:57:20;12.30;99.90
5775;DHT22;2913;51.120;6.772;2023-11-19T00:59:45;12.40;99.90
5775;DHT22;2913;51.120;6.772;2023-11-19T01:02:12;12.40;99.90
5775;DHT22;2913;51.120;6.772;2023-11-19T01:04:42;12.40;99.90
5775;DHT22;2913;51.120;6.772;2023-11-19T01:07:07;12.40;99.90
5775;DHT22;2913;51.120;6.772;2023-11-19T01:09:38;12.40;99.90
5775;DHT22;2913;51.120;6.772;2023-11-19T01:12:04;12.50;99.90
5775;DHT22;2913;51.120;6.772;2023-11-19T01:14:32;12.50;99.90
5775;DHT22;2913;51.120;6.772;2023-11-19T01:16:58;12.50;99.90
5775;DHT22;2913;51.120;6.772;2023-11-19T01:19:23;12.50;99.90
5775;DHT22;2913;51.120;6.772;2023-11-19T01:21:50;12.50;99.90
5775;DHT22;2913;51.120;6.772;2023-11-19T01:24:16;12.60;99.90
5775;DHT22;2913;51.120;6.772;2023-11-19T01:26:41;12.60;99.90
5775;DHT22;2913;51.120;6.772;2023-11-19T01:29:11;12.50;99.90
5775;DHT22;2913;51.120;6.772;2023-11-19T01:31:42;12.50;99.90
5775;DHT22;2913;51.120;6.772;2023-11-19T01:34:09;12.50;99.90
5775;DHT22;2913;51.120;6.772;2023-11-19T01:36:35;12.60;99.90
5775;DHT22;2913;51.120;6.772;2023-11-19T01:39:03;12.60;99.90
5775;DHT22;2913;51.120;6.772;2023-11-19T01:41:35;12.60;99.90
5775;DHT22;2913;51.120;6.772;2023-11-19T01:44:01;12.60;99.90
5775;DHT22;2913;51.120;6.772;2023-11-19T01:46:27;12.60;99.90
5775;DHT22;2913;51.120;6.772;2023-11-19T01:48:53;12.60;99.90
5775;DHT22;2913;51.120;6.772;2023-11-19T01:51:19;12.70;99.90
5775;DHT22;2913;51.120;6.772;2023-11-19T01:53:48;12.60;99.90
5775;DHT22;2913;51.120;6.772;2023-11-19T01:56:15;12.70;99.90
5775;DHT22;2913;51.120;6.772;2023-11-19T01:58:42;12.70;99.90
5775;DHT22;2913;51.120;6.772;2023-11-19T02:01:09;12.70;99.90
5775;DHT22;2913;51.120;6.772;2023-11-19T02:03:38;12.70;99.90
5775;DHT22;2913;51.120;6.772;2023-11-19T02:06:04;12.70;99.90
5775;DHT22;2913;51.120;6.772;2023-11-19T02:08:32;12.70;99.90
5775;DHT22;2913;51.120;6.772;2023-11-19T02:10:58;12.70;99.90
5775;DHT22;2913;51.120;6.772;2023-11-19T02:13:27;12.80;99.90
5775;DHT22;2913;51.120;6.772;2023-11-19T02:15:54;12.80;99.90
5775;DHT22;2913;51.120;6.772;2023-11-19T02:18:25;12.90;99.90
5775;DHT22;2913;51.120;6.772;2023-11-19T02:20:59;12.90;99.90
5775;DHT22;2913;51.120;6.772;2023-11-19T02:23:28;12.90;99.90
5775;DHT22;2913;51.120;6.772;2023-11-19T02:28:36;12.90;99.90
5775;DHT22;2913;51.120;6.772;2023-11-19T02:31:02;13.00;99.90
5775;DHT22;2913;51.120;6.772;2023-11-19T02:33:30;13.00;99.90
5775;DHT22;2913;51.120;6.772;2023-11-19T02:35:58;12.90;99.90
5775;DHT22;2913;51.120;6.772;2023-11-19T02:38:23;13.00;99.90
5775;DHT22;2913;51.120;6.772;2023-11-19T02:40:52;13.00;99.90
5775;DHT22;2913;51.120;6.772;2023-11-19T02:43:18;13.00;99.90
5775;DHT22;2913;51.120;6.772;2023-11-19T02:45:45;12.90;99.90
5775;DHT22;2913;51.120;6.772;2023-11-19T02:48:11;13.00;99.90
5775;DHT22;2913;51.120;6.772;2023-11-19T02:50:37;13.00;99.90
5775;DHT22;2913;51.120;6.772;2023-11-19T02:53:05;13.00;99.90
5775;DHT22;2913;51.120;6.772;2023-11-19T02:55:32;13.10;99.90
5775;DHT22;2913;51.120;6.772;2023-11-19T02:58:06;13.00;99.90
5775;DHT22;2913;51.120;6.772;2023-11-19T03:00:45;13.00;99.90
5775;DHT22;2913;51.120;6.772;2023-11-19T03:03:20;13.00;99.90
5775;DHT22;2913;51.120;6.772;2023-11-19T03:05:47;13.00;99.90
5775;DHT22;2913;51.120;6.772;2023-11-19T03:08:17;13.00;99.90
5775;DHT22;2913;51.120;6.772;2023-11-19T03:10:43;13.00;99.90
5775;DHT22;2913;51.120;6.772;2023-11-19T03:13:12;13.00;99.90
5775;DHT22;2913;51.120;6.772;2023-11-19T03:15:41;13.00;99.90
5775;DHT22;2913;51.120;6.772;2023-11-19T03:18:07;13.00;99.90
5775;DHT22;2913;51.120;6.772;2023-11-19T03:20:33;13.00;99.90
5775;DHT22;2913;51.120;6.772;2023-11-19T03:22:59;13.00;99.90
5775;DHT22;2913;51.120;6.772;2023-11-19T03:25:26;13.00;99.90
5775;DHT22;2913;51.120;6.772;2023-11-19T03:28:02;13.10;99.90
5775;DHT22;2913;51.120;6.772;2023-11-19T03:30:31;13.20;99.90
5775;DHT22;2913;51.120;6.772;2023-11-19T03:32:57;13.10;99.90
5775;DHT22;2913;51.120;6.772;2023-11-19T03:35:24;13.10;99.90
5775;DHT22;2913;51.120;6.772;2023-11-19T03:37:53;13.10;99.90
5775;DHT22;2913;51.120;6.772;2023-11-19T03:40:19;13.10;99.90
5775;DHT22;2913;51.120;6.772;2023-11-19T03:42:50;13.10;99.90
5775;DHT22;2913;51.120;6.772;2023-11-19T03:45:15;13.10;99.90
5775;DHT22;2913;51.120;6.772;2023-11-19T03:47:43;13.20;99.90
5775;DHT22;2913;51.120;6.772;2023-11-19T03:50:09;13.20;99.90
5775;DHT22;2913;51.120;6.772;2023-11-19T03:52:37;13.20;99.90
5775;DHT22;2913;51.120;6.772;2023-11-19T03:55:05;13.20;99.90
5775;DHT22;2913;51.120;6.772;2023-11-19T03:57:31;13.20;99.90
5775;DHT22;2913;51.120;6.772;2023-11-19T03:59:59;13.10;99.90
5775;DHT22;2913;51.120;6.772;2023-11-19T04:02:24;13.10;99.90
5775;DHT22;2913;51.120;6.772;2023-11-19T04:04:53;13.10;99.90
5775;DHT22;2913;51.120;6.772;2023-11-19T04:07:19;13.00;99.90
5775;DHT22;2913;51.120;6.772;2023-11-19T04:09:45;13.10;99.90
5775;DHT22;2913;51.120;6.772;2023-11-19T04:12:16;13.10;99.90
5775;DHT22;2913;51.120;6.772;2023-11-19T04:14:41;13.00;99.90
5775;DHT22;2913;51.120;6.772;2023-11-19T04:17:09;12.90;99.90
5775;DHT22;2913;51.120;6.772;2023-11-19T04:19:35;12.90;99.90
5775;DHT22;2913;51.120;6.772;2023-11-19T04:22:03;12.80;99.90
5775;DHT22;2913;51.120;6.772;2023-11-19T04:24:29;12.80;99.90
5775;DHT22;2913;51.120;6.772;2023-11-19T04:26:55;12.70;99.90
5775;DHT22;2913;51.120;6.772;2023-11-19T04:29:20;12.70;99.90
5775;DHT22;2913;51.120;6.772;2023-11-19T04:31:46;12.70;99.90
5775;DHT22;2913;51.120;6.772;2023-11-19T04:34:14;12.60;99.90
5775;DHT22;2913;51.120;6.772;2023-11-19T04:36:39;12.60;99.90
5775;DHT22;2913;51.120;6.772;2023-11-19T04:39:08;12.60;99.90
5775;DHT22;2913;51.120;6.772;2023-11-19T04:41:35;12.60;99.90
5775;DHT22;2913;51.120;6.772;2023-11-19T04:44:01;12.60;99.90
5775;DHT22;2913;51.120;6.772;2023-11-19T04:46:27;12.50;99.90
5775;DHT22;2913;51.120;6.772;2023-11-19T04:48:57;12.60;99.90
5775;DHT22;2913;51.120;6.772;2023-11-19T04:51:25;12.60;99.90
5775;DHT22;2913;51.120;6.772;2023-11-19T04:53:50;12.60;99.90
5775;DHT22;2913;51.120;6.772;2023-11-19T04:56:16;12.60;99.90
5775;DHT22;2913;51.120;6.772;2023-11-19T04:58:45;12.60;99.90
5775;DHT22;2913;51.120;6.772;2023-11-19T05:01:14;12.60;99.90
5775;DHT22;2913;51.120;6.772;2023-11-19T05:03:42;12.60;99.90
5775;DHT22;2913;51.120;6.772;2023-11-19T05:06:10;12.60;99.90
5775;DHT22;2913;51.120;6.772;2023-11-19T05:08:38;12.50;99.90
5775;DHT22;2913;51.120;6.772;2023-11-19T05:11:04;12.50;99.90
5775;DHT22;2913;51.120;6.772;2023-11-19T05:13:31;12.60;99.90
5775;DHT22;2913;51.120;6.772;2023-11-19T05:15:56;12.70;99.90
5775;DHT22;2913;51.120;6.772;2023-11-19T05:18:22;12.60;99.90
5775;DHT22;2913;51.120;6.772;2023-11-19T05:20:50;12.60;99.90
5775;DHT22;2913;51.120;6.772;2023-11-19T05:23:15;12.60;99.90
5775;DHT22;2913;51.120;6.772;2023-11-19T05:25:44;12.60;99.90
5775;DHT22;2913;51.120;6.772;2023-11-19T05:28:11;12.60;99.90
5775;DHT22;2913;51.120;6.772;2023-11-19T05:30:39;12.60;99.90
5775;DHT22;2913;51.120;6.772;2023-11-19T05:33:04;12.50;99.90
5775;DHT22;2913;51.120;6.772;2023-11-19T05:35:32;12.70;99.90
5775;DHT22;2913;51.120;6.772;2023-11-19T05:37:58;12.50;99.90
5775;DHT22;2913;51.120;6.772;2023-11-19T05:42:49;12.40;99.90
5775;DHT22;2913;51.120;6.772;2023-11-19T05:45:15;12.50;99.90
5775;DHT22;2913;51.120;6.772;2023-11-19T05:47:41;12.50;99.90
5775;DHT22;2913;51.120;6.772;2023-11-19T05:50:07;12.50;99.90
5775;DHT22;2913;51.120;6.772;2023-11-19T05:52:33;12.40;99.90
5775;DHT22;2913;51.120;6.772;2023-11-19T05:55:02;12.40;99.90
5775;DHT22;2913;51.120;6.772;2023-11-19T05:57:31;12.40;99.90
5775;DHT22;2913;51.120;6.772;2023-11-19T06:00:00;12.40;99.90
5775;DHT22;2913;51.120;6.772;2023-11-19T06:02:25;12.30;99.90
5775;DHT22;2913;51.120;6.772;2023-11-19T06:04:53;12.30;99.90
5775;DHT22;2913;51.120;6.772;2023-11-19T06:07:18;12.30;99.90
5775;DHT22;2913;51.120;6.772;2023-11-19T06:09:45;12.30;99.90
5775;DHT22;2913;51.120;6.772;2023-11-19T06:12:10;12.30;99.90
5775;DHT22;2913;51.120;6.772;2023-11-19T06:14:36;12.30;99.90
5775;DHT22;2913;51.120;6.772;2023-11-19T06:17:04;12.30;99.90
5775;DHT22;2913;51.120;6.772;2023-11-19T06:19:35;12.20;99.90
5775;DHT22;2913;51.120;6.772;2023-11-19T06:22:06;12.20;99.90
5775;DHT22;2913;51.120;6.772;2023-11-19T06:24:32;12.20;99.90
5775;DHT22;2913;51.120;6.772;2023-11-19T06:26:57;12.10;99.90
5775;DHT22;2913;51.120;6.772;2023-11-19T06:29:23;12.10;99.90
5775;DHT22;2913;51.120;6.772;2023-11-19T06:31:49;12.10;99.90
5775;DHT22;2913;51.120;6.772;2023-11-19T06:34:15;12.20;99.90
5775;DHT22;2913;51.120;6.772;2023-11-19T06:36:43;12.20;99.90
5775;DHT22;2913;51.120;6.772;2023-11-19T06:39:11;12.00;99.90
5775;DHT22;2913;51.120;6.772;2023-11-19T06:41:37;12.10;99.90
5775;DHT22;2913;51.120;6.772;2023-11-19T06:44:04;12.10;99.90
5775;DHT22;2913;51.120;6.772;2023-11-19T06:46:30;12.10;99.90
5775;DHT22;2913;51.120;6.772;2023-11-19T06:48:56;12.10;99.90
5775;DHT22;2913;51.120;6.772;2023-11-19T06:51:22;12.00;99.90
5775;DHT22;2913;51.120;6.772;2023-11-19T06:53:49;12.00;99.90
5775;DHT22;2913;51.120;6.772;2023-11-19T06:56:22;12.00;99.90
5775;DHT22;2913;51.120;6.772;2023-11-19T06:58:48;12.00;99.90
5775;DHT22;2913;51.120;6.772;2023-11-19T07:01:17;12.00;99.90
5775;DHT22;2913;51.120;6.772;2023-11-19T07:03:44;12.00;99.90
5775;DHT22;2913;51.120;6.772;2023-11-19T07:06:11;12.00;99.90
5775;DHT22;2913;51.120;6.772;2023-11-19T07:08:42;12.00;99.90
5775;DHT22;2913;51.120;6.772;2023-11-19T07:11:10;12.00;99.90
5775;DHT22;2913;51.120;6.772;2023-11-19T07:13:37;12.00;99.90
5775;DHT22;2913;51.120;6.772;2023-11-19T07:16:03;11.90;99.90
5775;DHT22;2913;51.120;6.772;2023-11-19T07:18:29;11.90;99.90
5775;DHT22;2913;51.120;6.772;2023-11-19T07:20:59;12.00;99.90
5775;DHT22;2913;51.120;6.772;2023-11-19T07:23:25;12.10;99.90
5775;DHT22;2913;51.120;6.772;2023-11-19T07:25:53;12.20;99.90
5775;DHT22;2913;51.120;6.772;2023-11-19T07:28:23;12.00;99.90
5775;DHT22;2913;51.120;6.772;2023-11-19T07:30:50;12.00;99.90
5775;DHT22;2913;51.120;6.772;2023-11-19T07:33:15;12.00;99.90
5775;DHT22;2913;51.120;6.772;2023-11-19T07:35:43;11.90;99.90
5775;DHT22;2913;51.120;6.772;2023-11-19T07:38:09;12.00;99.90
5775;DHT22;2913;51.120;6.772;2023-11-19T07:40:40;12.00;99.90
5775;DHT22;2913;51.120;6.772;2023-11-19T07:43:11;12.00;99.90
5775;DHT22;2913;51.120;6.772;2023-11-19T07:45:36;12.00;99.90
5775;DHT22;2913;51.120;6.772;2023-11-19T07:48:02;12.20;99.90
5775;DHT22;2913;51.120;6.772;2023-11-19T07:50:28;12.10;99.90
5775;DHT22;2913;51.120;6.772;2023-11-19T07:52:57;12.10;99.90
5775;DHT22;2913;51.120;6.772;2023-11-19T07:55:22;12.10;99.90
5775;DHT22;2913;51.120;6.772;2023-11-19T07:57:48;12.20;99.90
5775;DHT22;2913;51.120;6.772;2023-11-19T08:00:16;12.20;99.90
5775;DHT22;2913;51.120;6.772;2023-11-19T08:05:08;12.30;99.90
5775;DHT22;2913;51.120;6.772;2023-11-19T08:07:34;12.40;99.90
5775;DHT22;2913;51.120;6.772;2023-11-19T08:12:26;12.40;99.90
5775;DHT22;2913;51.120;6.772;2023-11-19T08:14:54;12.50;99.90
5775;DHT22;2913;51.120;6.772;2023-11-19T08:17:24;12.50;99.90
5775;DHT22;2913;51.120;6.772;2023-11-19T08:19:51;12.50;99.90
5775;DHT22;2913;51.120;6.772;2023-11-19T08:22:24;12.50;99.90
5775;DHT22;2913;51.120;6.772;2023-11-19T08:24:50;12.60;99.90
5775;DHT22;2913;51.120;6.772;2023-11-19T08:27:15;12.60;99.90
5775;DHT22;2913;51.120;6.772;2023-11-19T08:29:41;12.60;99.90
5775;DHT22;2913;51.120;6.772;2023-11-19T08:32:06;12.70;99.90
5775;DHT22;2913;51.120;6.772;2023-11-19T08:34:32;12.70;99.90
5775;DHT22;2913;51.120;6.772;2023-11-19T08:36:59;12.70;99.90
5775;DHT22;2913;51.120;6.772;2023-11-19T08:39:27;12.80;99.90
5775;DHT22;2913;51.120;6.772;2023-11-19T08:41:56;12.80;99.90
5775;DHT22;2913;51.120;6.772;2023-11-19T08:44:26;12.80;99.90
5775;DHT22;2913;51.120;6.772;2023-11-19T08:46:52;12.90;99.90
5775;DHT22;2913;51.120;6.772;2023-11-19T08:49:17;12.90;99.90
5775;DHT22;2913;51.120;6.772;2023-11-19T08:51:43;12.90;99.90
5775;DHT22;2913;51.120;6.772;2023-11-19T08:54:10;12.90;99.90
5775;DHT22;2913;51.120;6.772;2023-11-19T08:56:36;13.00;99.90
5775;DHT22;2913;51.120;6.772;2023-11-19T08:59:04;13.00;99.90
5775;DHT22;2913;51.120;6.772;2023-11-19T09:01:32;13.00;99.90
5775;DHT22;2913;51.120;6.772;2023-11-19T09:03:58;13.00;99.90
5775;DHT22;2913;51.120;6.772;2023-11-19T09:06:23;13.00;99.90
5775;DHT22;2913;51.120;6.772;2023-11-19T09:08:49;12.90;99.90
5775;DHT22;2913;51.120;6.772;2023-11-19T09:11:19;12.90;99.90
5775;DHT22;2913;51.120;6.772;2023-11-19T09:13:47;13.00;99.90
5775;DHT22;2913;51.120;6.772;2023-11-19T09:16:13;13.00;99.90
5775;DHT22;2913;51.120;6.772;2023-11-19T09:18:39;13.00;99.90
5775;DHT22;2913;51.120;6.772;2023-11-19T09:21:05;13.00;99.90
5775;DHT22;2913;51.120;6.772;2023-11-19T09:23:30;13.00;99.90
5775;DHT22;2913;51.120;6.772;2023-11-19T09:26:04;13.10;99.90
5775;DHT22;2913;51.120;6.772;2023-11-19T09:28:30;13.10;99.90
5775;DHT22;2913;51.120;6.772;2023-11-19T09:30:56;13.20;99.90
5775;DHT22;2913;51.120;6.772;2023-11-19T09:33:24;13.10;99.90
5775;DHT22;2913;51.120;6.772;2023-11-19T09:35:50;13.20;99.90
5775;DHT22;2913;51.120;6.772;2023-11-19T09:38:16;13.20;99.90
5775;DHT22;2913;51.120;6.772;2023-11-19T09:40:42;13.40;99.90
5775;DHT22;2913;51.120;6.772;2023-11-19T09:43:08;13.20;99.90
5775;DHT22;2913;51.120;6.772;2023-11-19T09:48:12;13.30;99.90
5775;DHT22;2913;51.120;6.772;2023-11-19T09:50:38;13.30;99.90
5775;DHT22;2913;51.120;6.772;2023-11-19T09:53:06;13.40;99.90
5775;DHT22;2913;51.120;6.772;2023-11-19T09:55:34;13.40;99.90
5775;DHT22;2913;51.120;6.772;2023-11-19T09:58:03;13.40;99.90
5775;DHT22;2913;51.120;6.772;2023-11-19T10:00:31;13.40;99.90
5775;DHT22;2913;51.120;6.772;2023-11-19T10:02:57;13.50;99.90
5775;DHT22;2913;51.120;6.772;2023-11-19T10:05:24;13.50;99.90
5775;DHT22;2913;51.120;6.772;2023-11-19T10:07:50;13.70;99.90
5775;DHT22;2913;51.120;6.772;2023-11-19T10:10:18;13.60;99.90
5775;DHT22;2913;51.120;6.772;2023-11-19T10:12:47;13.70;99.90
5775;DHT22;2913;51.120;6.772;2023-11-19T10:15:20;13.80;99.90
5775;DHT22;2913;51.120;6.772;2023-11-19T10:17:50;13.90;99.90
5775;DHT22;2913;51.120;6.772;2023-11-19T10:20:19;13.90;99.90
5775;DHT22;2913;51.120;6.772;2023-11-19T10:22:46;13.90;99.90
5775;DHT22;2913;51.120;6.772;2023-11-19T10:25:22;13.90;99.90
5775;DHT22;2913;51.120;6.772;2023-11-19T10:27:49;13.90;99.90
5775;DHT22;2913;51.120;6.772;2023-11-19T10:30:23;13.90;99.90
5775;DHT22;2913;51.120;6.772;2023-11-19T10:33:09;13.80;99.90
5775;DHT22;2913;51.120;6.772;2023-11-19T10:35:52;13.80;99.90
5775;DHT22;2913;51.120;6.772;2023-11-19T10:38:27;13.80;99.90
5775;DHT22;2913;51.120;6.772;2023-11-19T10:40:53;13.80;99.90
5775;DHT22;2913;51.120;6.772;2023-11-19T10:43:20;13.80;99.90
5775;DHT22;2913;51.120;6.772;2023-11-19T10:45:49;13.80;99.90
5775;DHT22;2913;51.120;6.772;2023-11-19T10:48:18;13.90;99.90
5775;DHT22;2913;51.120;6.772;2023-11-19T10:50:45;13.90;99.90
5775;DHT22;2913;51.120;6.772;2023-11-19T10:53:16;14.00;99.90
5775;DHT22;2913;51.120;6.772;2023-11-19T10:55:47;14.00;99.90
5775;DHT22;2913;51.120;6.772;2023-11-19T10:58:15;14.00;99.90
5775;DHT22;2913;51.120;6.772;2023-11-19T11:00:52;14.00;99.90
5775;DHT22;2913;51.120;6.772;2023-11-19T11:03:21;14.00;99.90
5775;DHT22;2913;51.120;6.772;2023-11-19T11:05:52;14.00;99.90
5775;DHT22;2913;51.120;6.772;2023-11-19T11:08:19;14.00;99.90
5775;DHT22;2913;51.120;6.772;2023-11-19T11:10:48;14.00;99.90
5775;DHT22;2913;51.120;6.772;2023-11-19T11:13:19;14.00;99.90
5775;DHT22;2913;51.120;6.772;2023-11-19T11:15:50;14.00;99.90
5775;DHT22;2913;51.120;6.772;2023-11-19T11:18:16;13.90;99.90
5775;DHT22;2913;51.120;6.772;2023-11-19T11:20:44;13.80;99.90
5775;DHT22;2913;51.120;6.772;2023-11-19T11:34:30;14.20;99.90
5775;DHT22;2913;51.120;6.772;2023-11-19T11:37:19;14.20;99.90
5775;DHT22;2913;51.120;6.772;2023-11-19T11:39:46;14.20;99.90
5775;DHT22;2913;51.120;6.772;2023-11-19T11:45:09;14.40;99.90
5775;DHT22;2913;51.120;6.772;2023-11-19T11:50:17;14.40;99.90
5775;DHT22;2913;51.120;6.772;2023-11-19T11:58:13;14.70;99.90
5775;DHT22;2913;51.120;6.772;2023-11-19T12:00:42;14.70;99.90
5775;DHT22;2913;51.120;6.772;2023-11-19T12:03:11;14.60;99.90
5775;DHT22;2913;51.120;6.772;2023-11-19T12:05:44;14.60;99.90
5775;DHT22;2913;51.120;6.772;2023-11-19T12:08:15;14.70;99.90
5775;DHT22;2913;51.120;6.772;2023-11-19T12:10:48;14.60;99.90
5775;DHT22;2913;51.120;6.772;2023-11-19T12:13:14;14.50;99.90
5775;DHT22;2913;51.120;6.772;2023-11-19T12:18:32;14.40;99.90
5775;DHT22;2913;51.120;6.772;2023-11-19T12:20:58;14.50;99.90
5775;DHT22;2913;51.120;6.772;2023-11-19T12:23:30;14.50;99.90
5775;DHT22;2913;51.120;6.772;2023-11-19T12:25:57;14.60;99.90
5775;DHT22;2913;51.120;6.772;2023-11-19T12:28:25;14.50;99.90
5775;DHT22;2913;51.120;6.772;2023-11-19T12:31:06;14.60;99.90
5775;DHT22;2913;51.120;6.772;2023-11-19T12:33:32;14.50;99.90
5775;DHT22;2913;51.120;6.772;2023-11-19T12:36:00;14.50;99.90
5775;DHT22;2913;51.120;6.772;2023-11-19T12:38:30;14.50;99.90
5775;DHT22;2913;51.120;6.772;2023-11-19T12:41:09;14.40;99.90
5775;DHT22;2913;51.120;6.772;2023-11-19T12:43:39;14.40;99.90
5775;DHT22;2913;51.120;6.772;2023-11-19T12:46:21;14.20;99.90
5775;DHT22;2913;51.120;6.772;2023-11-19T12:48:50;14.10;99.90
5775;DHT22;2913;51.120;6.772;2023-11-19T12:51:18;14.10;99.90
5775;DHT22;2913;51.120;6.772;2023-11-19T12:53:54;14.10;99.90
5775;DHT22;2913;51.120;6.772;2023-11-19T12:56:22;14.00;99.90
5775;DHT22;2913;51.120;6.772;2023-11-19T12:58:48;14.20;99.90
5775;DHT22;2913;51.120;6.772;2023-11-19T13:01:18;14.20;99.90
5775;DHT22;2913;51.120;6.772;2023-11-19T13:03:45;14.10;99.90
5775;DHT22;2913;51.120;6.772;2023-11-19T13:06:14;14.20;99.90
5775;DHT22;2913;51.120;6.772;2023-11-19T13:08:48;14.20;99.90
5775;DHT22;2913;51.120;6.772;2023-11-19T13:11:30;14.30;99.90
5775;DHT22;2913;51.120;6.772;2023-11-19T13:13:58;14.30;99.90
5775;DHT22;2913;51.120;6.772;2023-11-19T13:16:27;14.30;99.90
5775;DHT22;2913;51.120;6.772;2023-11-19T13:18:53;14.20;99.90
5775;DHT22;2913;51.120;6.772;2023-11-19T13:21:19;14.10;99.90
5775;DHT22;2913;51.120;6.772;2023-11-19T13:23:44;14.20;99.90
5775;DHT22;2913;51.120;6.772;2023-11-19T13:26:12;14.20;99.90
5775;DHT22;2913;51.120;6.772;2023-11-19T13:28:38;14.10;99.90
5775;DHT22;2913;51.120;6.772;2023-11-19T13:31:04;14.20;99.90
5775;DHT22;2913;51.120;6.772;2023-11-19T13:33:30;14.20;99.90
5775;DHT22;2913;51.120;6.772;2023-11-19T13:35:56;14.20;99.90
5775;DHT22;2913;51.120;6.772;2023-11-19T13:38:25;14.30;99.90
5775;DHT22;2913;51.120;6.772;2023-11-19T13:40:53;14.30;99.90
5775;DHT22;2913;51.120;6.772;2023-11-19T13:43:19;14.20;99.90
5775;DHT22;2913;51.120;6.772;2023-11-19T13:45:44;14.20;99.90
5775;DHT22;2913;51.120;6.772;2023-11-19T13:48:10;14.20;99.90
5775;DHT22;2913;51.120;6.772;2023-11-19T13:50:38;14.20;99.90
5775;DHT22;2913;51.120;6.772;2023-11-19T13:53:09;14.00;99.90
5775;DHT22;2913;51.120;6.772;2023-11-19T13:55:35;14.00;99.90
5775;DHT22;2913;51.120;6.772;2023-11-19T13:58:01;14.00;99.90
5775;DHT22;2913;51.120;6.772;2023-11-19T14:00:26;14.00;99.90
5775;DHT22;2913;51.120;6.772;2023-11-19T14:02:52;14.00;99.90
5775;DHT22;2913;51.120;6.772;2023-11-19T14:05:20;14.00;99.90
5775;DHT22;2913;51.120;6.772;2023-11-19T14:07:46;13.90;99.90
5775;DHT22;2913;51.120;6.772;2023-11-19T14:10:16;13.90;99.90
5775;DHT22;2913;51.120;6.772;2023-11-19T14:12:44;13.90;99.90
5775;DHT22;2913;51.120;6.772;2023-11-19T14:15:10;13.90;99.90
5775;DHT22;2913;51.120;6.772;2023-11-19T14:17:38;13.80;99.90
5775;DHT22;2913;51.120;6.772;2023-11-19T14:20:04;13.80;99.90
5775;DHT22;2913;51.120;6.772;2023-11-19T14:22:42;13.80;99.90
5775;DHT22;2913;51.120;6.772;2023-11-19T14:25:11;13.60;99.90
5775;DHT22;2913;51.120;6.772;2023-11-19T14:27:41;13.70;99.90
5775;DHT22;2913;51.120;6.772;2023-11-19T14:30:08;13.60;99.90
5775;DHT22;2913;51.120;6.772;2023-11-19T14:32:35;13.60;99.90
5775;DHT22;2913;51.120;6.772;2023-11-19T14:35:01;13.50;99.90
5775;DHT22;2913;51.120;6.772;2023-11-19T14:37:29;13.50;99.90
5775;DHT22;2913;51.120;6.772;2023-11-19T14:39:56;13.40;99.90
5775;DHT22;2913;51.120;6.772;2023-11-19T14:42:23;13.50;99.90
5775;DHT22;2913;51.120;6.772;2023-11-19T14:44:53;13.40;99.90
5775;DHT22;2913;51.120;6.772;2023-11-19T14:47:19;13.50;99.90
5775;DHT22;2913;51.120;6.772;2023-11-19T14:49:45;13.50;99.90
5775;DHT22;2913;51.120;6.772;2023-11-19T14:52:11;13.40;99.90
5775;DHT22;2913;51.120;6.772;2023-11-19T14:54:37;13.50;99.90
5775;DHT22;2913;51.120;6.772;2023-11-19T14:57:04;13.50;99.90
5775;DHT22;2913;51.120;6.772;2023-11-19T14:59:32;13.50;99.90
5775;DHT22;2913;51.120;6.772;2023-11-19T15:01:58;13.50;99.90
5775;DHT22;2913;51.120;6.772;2023-11-19T15:04:29;13.50;99.90
5775;DHT22;2913;51.120;6.772;2023-11-19T15:06:58;13.40;99.90
5775;DHT22;2913;51.120;6.772;2023-11-19T15:09:24;13.40;99.90
5775;DHT22;2913;51.120;6.772;2023-11-19T15:11:53;13.30;99.90
5775;DHT22;2913;51.120;6.772;2023-11-19T15:14:19;13.30;99.90
5775;DHT22;2913;51.120;6.772;2023-11-19T15:16:46;13.20;99.90
5775;DHT22;2913;51.120;6.772;2023-11-19T15:19:12;13.20;99.90
5775;DHT22;2913;51.120;6.772;2023-11-19T15:21:40;13.10;99.90
5775;DHT22;2913;51.120;6.772;2023-11-19T15:24:06;13.00;99.90
5775;DHT22;2913;51.120;6.772;2023-11-19T15:26:36;12.90;99.90
5775;DHT22;2913;51.120;6.772;2023-11-19T15:29:06;12.80;99.90
5775;DHT22;2913;51.120;6.772;2023-11-19T15:31:32;12.80;99.90
5775;DHT22;2913;51.120;6.772;2023-11-19T15:33:58;12.80;99.90
5775;DHT22;2913;51.120;6.772;2023-11-19T15:36:24;12.70;99.90
5775;DHT22;2913;51.120;6.772;2023-11-19T15:38:52;12.70;99.90
5775;DHT22;2913;51.120;6.772;2023-11-19T15:41:17;12.70;99.90
5775;DHT22;2913;51.120;6.772;2023-11-19T15:43:43;12.70;99.90
5775;DHT22;2913;51.120;6.772;2023-11-19T15:46:09;12.70;99.90
5775;DHT22;2913;51.120;6.772;2023-11-19T15:48:36;12.60;99.90
5775;DHT22;2913;51.120;6.772;2023-11-19T15:51:04;12.60;99.90
5775;DHT22;2913;51.120;6.772;2023-11-19T15:53:30;12.60;99.90
5775;DHT22;2913;51.120;6.772;2023-11-19T15:55:59;12.70;99.90
5775;DHT22;2913;51.120;6.772;2023-11-19T15:58:25;12.60;99.90
5775;DHT22;2913;51.120;6.772;2023-11-19T16:00:50;12.70;99.90
5775;DHT22;2913;51.120;6.772;2023-11-19T16:03:18;12.70;99.90
5775;DHT22;2913;51.120;6.772;2023-11-19T16:05:44;12.70;99.90
5775;DHT22;2913;51.120;6.772;2023-11-19T16:08:10;12.60;99.90
5775;DHT22;2913;51.120;6.772;2023-11-19T16:10:37;12.60;99.90
5775;DHT22;2913;51.120;6.772;2023-11-19T16:13:08;12.60;99.90
5775;DHT22;2913;51.120;6.772;2023-11-19T16:15:34;12.50;99.90
5775;DHT22;2913;51.120;6.772;2023-11-19T16:18:02;12.50;99.90
5775;DHT22;2913;51.120;6.772;2023-11-19T16:20:28;12.50;99.90
5775;DHT22;2913;51.120;6.772;2023-11-19T16:22:54;12.50;99.90
5775;DHT22;2913;51.120;6.772;2023-11-19T16:25:19;12.40;99.90
5775;DHT22;2913;51.120;6.772;2023-11-19T16:27:45;12.40;99.90
5775;DHT22;2913;51.120;6.772;2023-11-19T16:30:13;12.40;99.90
5775;DHT22;2913;51.120;6.772;2023-11-19T16:32:56;12.40;99.90
5775;DHT22;2913;51.120;6.772;2023-11-19T16:35:24;12.40;99.90
5775;DHT22;2913;51.120;6.772;2023-11-19T16:37:50;12.30;99.90
5775;DHT22;2913;51.120;6.772;2023-11-19T16:40:18;12.40;99.90
5775;DHT22;2913;51.120;6.772;2023-11-19T16:42:44;12.40;99.90